Time;durP1;ratioP1;P1;durP2;ratioP2;P2;SDS_P1;SDS_P2;PMS_P1;PMS_P2;Temp;Humidity;BMP_temperature;BMP_pressure;BME280_temperature;BME280_humidity;BME280_pressure;Samples;Min_cycle;Max_cycle;Signal;HPM_P1;HPM_P2
2023/12/25 00:01:05;;;;;;;10.82;8.10;;;19.50;99.90;;;;;;4931906;29;20102;-68
2023/12/25 00:03:32;;;;;;;14.38;8.15;;;19.40;99.90;;;;;;4930161;29;20087;-69
2023/12/25 00:05:58;;;;;;;12.20;8.45;;;19.30;99.90;;;;;;4930393;29;20158;-68
2023/12/25 00:08:25;;;;;;;10.40;8.30;;;19.30;99.90;;;;;;4930722;29;20206;-69
2023/12/25 00:10:51;;;;;;;14.95;10.13;;;19.20;99.90;;;;;;4931460;29;20086;-63
2023/12/25 00:13:18;;;;;;;11.73;8.90;;;19.20;99.90;;;;;;4931756;29;20086;-60
2023/12/25 00:15:44;;;;;;;13.18;10.18;;;19.10;99.90;;;;;;4930818;29;20129;-68
2023/12/25 00:18:11;;;;;;;10.10;8.70;;;19.00;99.90;;;;;;4930390;28;20114;-68
2023/12/25 00:20:40;;;;;;;11.77;8.88;;;19.00;99.90;;;;;;4930419;29;20102;-64
2023/12/25 00:23:06;;;;;;;12.48;9.68;;;18.90;99.90;;;;;;4930594;29;20129;-66
2023/12/25 00:25:33;;;;;;;13.85;11.45;;;18.80;99.90;;;;;;4931537;29;20589;-66
2023/12/25 00:27:59;;;;;;;13.70;11.70;;;18.80;99.90;;;;;;4932955;29;20111;-67
2023/12/25 00:30:26;;;;;;;17.38;11.35;;;18.70;99.90;;;;;;4933465;29;20129;-67
2023/12/25 00:32:52;;;;;;;15.43;10.73;;;18.60;99.90;;;;;;4937138;29;20161;-66
2023/12/25 00:35:18;;;;;;;19.02;12.45;;;18.50;99.90;;;;;;4933179;28;20111;-69
2023/12/25 00:37:45;;;;;;;16.30;11.82;;;18.50;99.90;;;;;;4930684;29;20137;-66
2023/12/25 00:40:11;;;;;;;16.08;10.10;;;18.40;99.90;;;;;;4931457;29;20119;-69
2023/12/25 00:42:38;;;;;;;13.85;9.68;;;18.30;99.90;;;;;;4936390;29;20118;-68
2023/12/25 00:45:05;;;;;;;12.40;8.27;;;18.30;99.90;;;;;;4930551;29;21270;-68
2023/12/25 00:47:31;;;;;;;13.70;8.27;;;18.20;99.90;;;;;;4930904;29;20115;-69
2023/12/25 00:49:58;;;;;;;16.85;9.20;;;18.00;99.90;;;;;;4930864;29;20136;-69
2023/12/25 00:52:24;;;;;;;14.57;9.57;;;18.00;99.90;;;;;;4945747;28;20455;-69
2023/12/25 00:54:50;;;;;;;19.98;10.07;;;17.90;99.90;;;;;;4940488;29;20170;-68
2023/12/25 00:57:17;;;;;;;18.33;10.40;;;17.90;99.90;;;;;;4930395;29;20115;-68
2023/12/25 00:59:43;;;;;;;17.27;9.77;;;17.80;99.90;;;;;;4929989;29;20091;-68
2023/12/25 01:02:10;;;;;;;17.40;10.48;;;17.70;99.90;;;;;;4930149;29;20135;-73
2023/12/25 01:04:37;;;;;;;18.95;10.02;;;17.60;99.90;;;;;;4929448;28;20103;-71
2023/12/25 01:07:03;;;;;;;20.38;10.82;;;17.50;99.90;;;;;;4930211;29;20186;-69
2023/12/25 01:09:30;;;;;;;22.38;11.23;;;17.40;99.90;;;;;;4930426;29;20555;-71
2023/12/25 01:11:56;;;;;;;18.42;11.32;;;17.40;99.90;;;;;;4931099;29;20079;-66
2023/12/25 01:14:23;;;;;;;21.15;12.70;;;17.40;99.90;;;;;;4930506;29;20083;-69
2023/12/25 01:16:49;;;;;;;24.45;12.55;;;17.30;99.90;;;;;;4930333;29;20087;-67
2023/12/25 01:19:15;;;;;;;26.15;14.93;;;17.20;99.90;;;;;;4929803;29;20083;-70
2023/12/25 01:21:42;;;;;;;33.92;17.80;;;17.10;99.90;;;;;;4930284;29;20087;-70
2023/12/25 01:24:08;;;;;;;34.50;18.40;;;17.00;99.90;;;;;;4929632;29;20522;-66
2023/12/25 01:26:35;;;;;;;33.08;18.77;;;17.00;99.90;;;;;;4945054;28;20079;-67
2023/12/25 01:29:01;;;;;;;36.08;17.98;;;16.90;99.90;;;;;;4930172;29;20109;-71
2023/12/25 01:31:28;;;;;;;51.13;17.48;;;16.80;99.90;;;;;;4930495;29;20102;-71
2023/12/25 01:33:54;;;;;;;32.33;15.88;;;16.70;99.90;;;;;;4942191;28;20118;-66
2023/12/25 01:36:20;;;;;;;41.15;20.02;;;16.60;99.90;;;;;;4931103;29;20213;-64
2023/12/25 01:38:47;;;;;;;33.83;17.42;;;16.60;99.90;;;;;;4929810;29;20075;-63
2023/12/25 01:41:13;;;;;;;33.35;17.45;;;16.50;99.90;;;;;;4945079;28;20111;-65
2023/12/25 01:43:40;;;;;;;42.72;19.10;;;16.50;99.90;;;;;;4929826;29;20095;-66
2023/12/25 01:46:06;;;;;;;39.33;18.45;;;16.40;99.90;;;;;;4927665;29;20090;-67
2023/12/25 01:48:33;;;;;;;42.97;18.30;;;16.40;99.90;;;;;;4928122;29;20122;-69
2023/12/25 01:51:00;;;;;;;48.10;18.77;;;16.30;99.90;;;;;;4930452;28;20079;-69
2023/12/25 01:53:27;;;;;;;38.05;18.10;;;16.20;99.90;;;;;;4928500;29;20080;-70
2023/12/25 01:55:53;;;;;;;36.92;18.73;;;16.10;99.90;;;;;;4930222;29;20079;-64
2023/12/25 01:58:20;;;;;;;32.75;18.05;;;16.10;99.90;;;;;;4929199;29;20162;-67
2023/12/25 02:00:46;;;;;;;39.72;18.55;;;16.00;99.90;;;;;;4943832;28;20129;-64
2023/12/25 02:03:13;;;;;;;47.05;18.90;;;16.00;99.90;;;;;;4929081;29;20087;-65
2023/12/25 02:05:39;;;;;;;48.00;21.05;;;16.00;99.90;;;;;;4937699;29;20652;-65
2023/12/25 02:08:08;;;;;;;47.75;20.98;;;15.90;99.90;;;;;;4929591;28;20111;-63
2023/12/25 02:10:36;;;;;;;54.80;24.42;;;15.90;99.90;;;;;;4929479;28;20453;-65
2023/12/25 02:13:05;;;;;;;65.53;28.90;;;15.90;99.90;;;;;;4929777;29;20095;-65
2023/12/25 02:15:33;;;;;;;67.50;27.00;;;15.80;99.90;;;;;;4929256;29;20534;-67
2023/12/25 02:18:00;;;;;;;61.47;28.23;;;15.80;99.90;;;;;;4942896;28;20083;-66
2023/12/25 02:20:26;;;;;;;51.72;24.95;;;15.80;99.90;;;;;;4930061;29;20573;-66
2023/12/25 02:22:55;;;;;;;50.40;25.13;;;15.70;99.90;;;;;;4929289;29;20080;-67
2023/12/25 02:25:31;;;;;;;69.95;25.98;;;15.60;99.90;;;;;;4929630;29;20083;-67
2023/12/25 02:27:58;;;;;;;;;;;15.60;99.90;;;;;;4929603;29;20165;-65
2023/12/25 02:30:25;;;;;;;50.47;24.95;;;15.50;99.90;;;;;;4929047;29;20005;-67
2023/12/25 02:32:51;;;;;;;51.05;25.27;;;15.50;99.90;;;;;;4928848;29;20079;-67
2023/12/25 02:35:18;;;;;;;54.33;25.02;;;15.50;99.90;;;;;;4929465;29;20156;-64
2023/12/25 02:37:44;;;;;;;47.20;24.63;;;15.40;99.90;;;;;;4930146;29;20545;-66
2023/12/25 02:40:11;;;;;;;55.33;26.48;;;15.40;99.90;;;;;;4929874;29;20425;-67
2023/12/25 02:42:37;;;;;;;62.63;29.73;;;15.30;99.90;;;;;;4927552;29;20091;-65
2023/12/25 02:45:05;;;;;;;66.85;30.02;;;15.30;99.90;;;;;;4929450;29;20087;-65
2023/12/25 02:47:31;;;;;;;80.63;31.52;;;15.30;99.90;;;;;;4926901;29;20140;-68
2023/12/25 02:49:58;;;;;;;68.50;32.05;;;15.30;99.90;;;;;;4929253;29;20086;-67
2023/12/25 02:52:24;;;;;;;68.28;33.28;;;15.30;99.90;;;;;;4928175;29;20075;-69
2023/12/25 02:54:51;;;;;;;63.05;33.40;;;15.30;99.90;;;;;;4928734;29;20106;-68
2023/12/25 02:57:17;;;;;;;73.75;33.75;;;15.10;99.90;;;;;;4932353;29;20110;-69
2023/12/25 02:59:44;;;;;;;67.10;30.13;;;15.10;99.90;;;;;;4936935;29;20090;-67
2023/12/25 03:02:10;;;;;;;51.45;30.52;;;15.10;99.90;;;;;;4936683;28;20530;-62
2023/12/25 03:04:37;;;;;;;63.35;31.20;;;15.10;99.90;;;;;;4932702;28;20099;-64
2023/12/25 03:07:03;;;;;;;64.45;35.17;;;15.00;99.90;;;;;;4937792;29;20099;-66
2023/12/25 03:09:30;;;;;;;67.25;33.22;;;15.00;99.90;;;;;;4931565;29;20105;-68
2023/12/25 03:11:56;;;;;;;57.50;32.75;;;14.90;99.90;;;;;;4933135;29;20146;-65
2023/12/25 03:14:23;;;;;;;71.60;35.45;;;14.90;99.90;;;;;;4931111;29;20097;-67
2023/12/25 03:16:49;;;;;;;83.85;36.63;;;14.90;99.90;;;;;;4942720;29;20106;-67
2023/12/25 03:19:15;;;;;;;71.43;35.92;;;14.90;99.90;;;;;;4946692;28;20244;-68
2023/12/25 03:21:42;;;;;;;63.15;34.72;;;14.80;99.90;;;;;;4931925;29;20093;-67
2023/12/25 03:24:09;;;;;;;68.72;34.58;;;14.70;99.90;;;;;;4935357;29;20083;-66
2023/12/25 03:26:36;;;;;;;79.72;35.65;;;14.70;99.90;;;;;;4941818;28;21734;-70
2023/12/25 03:29:03;;;;;;;77.07;33.75;;;14.70;99.90;;;;;;4931969;29;20171;-68
2023/12/25 03:31:30;;;;;;;70.90;35.90;;;14.70;99.90;;;;;;4930999;29;20707;-65
2023/12/25 03:33:58;;;;;;;73.93;33.78;;;14.70;99.90;;;;;;4932131;29;20090;-70
2023/12/25 03:36:25;;;;;;;76.63;34.97;;;14.70;99.90;;;;;;4940996;29;20076;-65
2023/12/25 03:38:52;;;;;;;68.22;37.03;;;14.60;99.90;;;;;;4930419;29;20084;-65
2023/12/25 03:41:18;;;;;;;81.22;38.05;;;14.60;99.90;;;;;;4932361;29;20091;-66
2023/12/25 03:43:45;;;;;;;80.00;40.47;;;14.50;99.90;;;;;;4931122;29;20605;-66
2023/12/25 03:46:11;;;;;;;;;;;14.50;99.90;;;;;;4933046;29;20111;-68
2023/12/25 03:48:37;;;;;;;89.13;42.97;;;14.50;99.90;;;;;;4930600;28;19982;-69
2023/12/25 03:51:04;;;;;;;82.93;43.63;;;14.60;99.90;;;;;;4932018;29;20095;-68
2023/12/25 03:53:31;;;;;;;82.40;44.03;;;14.50;99.90;;;;;;4934173;29;20087;-68
2023/12/25 03:56:05;;;;;;;90.13;49.58;;;14.50;99.90;;;;;;4931675;29;20083;-68
2023/12/25 03:58:33;;;;;;;92.03;56.22;;;14.50;99.90;;;;;;4931393;29;20127;-68
2023/12/25 04:01:00;;;;;;;91.22;55.70;;;14.40;99.90;;;;;;4931558;29;20166;-68
2023/12/25 04:03:26;;;;;;;99.15;55.25;;;14.30;99.90;;;;;;4930924;29;20094;-67
2023/12/25 04:05:53;;;;;;;89.43;55.63;;;14.30;99.90;;;;;;4928898;29;20087;-67
2023/12/25 04:08:19;;;;;;;88.60;60.67;;;14.30;99.90;;;;;;4930959;29;20111;-68
2023/12/25 04:10:45;;;;;;;;;;;14.20;99.90;;;;;;4929227;29;20160;-68
2023/12/25 04:13:12;;;;;;;100.55;59.05;;;14.20;99.90;;;;;;4930471;29;19958;-68
2023/12/25 04:15:38;;;;;;;94.03;58.75;;;14.10;99.90;;;;;;4931694;29;20487;-68
2023/12/25 04:18:05;;;;;;;92.72;60.22;;;14.10;99.90;;;;;;4930881;29;20449;-65
2023/12/25 04:20:31;;;;;;;92.05;57.38;;;14.00;99.90;;;;;;4930962;29;20079;-67
2023/12/25 04:22:58;;;;;;;92.18;58.67;;;14.00;99.90;;;;;;4931025;29;20605;-67
2023/12/25 04:25:24;;;;;;;94.18;58.47;;;14.00;99.90;;;;;;4930711;29;20080;-67
2023/12/25 04:27:51;;;;;;;89.97;57.92;;;14.00;99.90;;;;;;4930137;29;20198;-68
2023/12/25 04:30:18;;;;;;;89.53;57.55;;;14.00;99.90;;;;;;4930649;29;20111;-66
2023/12/25 04:32:44;;;;;;;94.97;57.65;;;14.00;99.90;;;;;;4930327;29;20098;-68
2023/12/25 04:35:11;;;;;;;99.45;59.63;;;13.90;99.90;;;;;;4930163;29;21768;-68
2023/12/25 04:37:38;;;;;;;102.35;60.10;;;13.90;99.90;;;;;;4930635;29;20091;-67
2023/12/25 04:40:05;;;;;;;94.55;56.97;;;13.90;99.90;;;;;;4931084;29;20087;-68
2023/12/25 04:42:32;;;;;;;94.10;58.45;;;13.90;99.90;;;;;;4930050;29;20538;-71
2023/12/25 04:44:58;;;;;;;105.32;61.63;;;13.90;99.90;;;;;;4936751;29;20567;-66
2023/12/25 04:47:24;;;;;;;88.75;61.33;;;13.90;99.90;;;;;;4929557;29;20510;-68
2023/12/25 04:49:51;;;;;;;103.00;64.10;;;13.90;99.90;;;;;;4930732;29;20593;-69
2023/12/25 04:52:17;;;;;;;109.97;59.95;;;13.80;99.90;;;;;;4940430;29;20150;-68
2023/12/25 04:54:44;;;;;;;109.05;63.10;;;13.80;99.90;;;;;;4935616;29;20087;-69
2023/12/25 04:57:10;;;;;;;100.85;60.95;;;13.80;99.90;;;;;;4938587;29;20113;-70
2023/12/25 04:59:37;;;;;;;107.93;62.65;;;13.70;99.90;;;;;;4930179;29;20131;-70
2023/12/25 05:02:03;;;;;;;104.95;63.67;;;13.80;99.90;;;;;;4930904;29;20091;-69
2023/12/25 05:04:30;;;;;;;103.97;69.45;;;13.70;99.90;;;;;;4929177;29;20091;-69
2023/12/25 05:06:57;;;;;;;110.88;66.68;;;13.70;99.90;;;;;;4928707;29;20083;-69
2023/12/25 05:09:23;;;;;;;103.22;63.33;;;13.60;99.90;;;;;;4928468;29;20160;-68
2023/12/25 05:11:49;;;;;;;109.28;64.05;;;13.60;99.90;;;;;;4930511;29;20593;-67
2023/12/25 05:14:16;;;;;;;101.38;64.70;;;13.60;99.90;;;;;;4928600;29;20083;-70
2023/12/25 05:16:43;;;;;;;118.13;68.60;;;13.60;99.90;;;;;;4936759;29;20162;-66
2023/12/25 05:19:12;;;;;;;103.10;65.97;;;13.60;99.90;;;;;;4933909;29;20177;-69
2023/12/25 05:21:38;;;;;;;115.18;68.72;;;13.60;99.90;;;;;;4934513;28;20146;-70
2023/12/25 05:24:05;;;;;;;117.38;76.63;;;13.60;99.90;;;;;;4936531;29;20121;-69
2023/12/25 05:26:32;;;;;;;123.18;73.30;;;13.50;99.90;;;;;;4948503;28;20106;-69
2023/12/25 05:28:58;;;;;;;129.75;86.32;;;13.50;99.90;;;;;;4936330;28;20106;-70
2023/12/25 05:31:25;;;;;;;134.52;86.38;;;13.50;99.90;;;;;;4936000;29;20117;-70
2023/12/25 05:33:51;;;;;;;140.43;97.75;;;13.50;99.90;;;;;;4939152;29;20088;-70
2023/12/25 05:36:18;;;;;;;134.30;90.85;;;13.40;99.90;;;;;;4935445;29;20170;-70
2023/12/25 05:38:44;;;;;;;132.93;90.30;;;13.40;99.90;;;;;;4927893;29;20237;-70
2023/12/25 05:41:11;;;;;;;135.23;91.07;;;13.30;99.90;;;;;;4944383;28;20134;-67
2023/12/25 05:43:37;;;;;;;;;;;13.30;99.90;;;;;;4930404;29;20468;-63
2023/12/25 05:46:04;;;;;;;143.60;95.63;;;13.30;99.90;;;;;;4927975;29;19974;-68
2023/12/25 05:48:30;;;;;;;146.63;95.57;;;13.30;99.90;;;;;;4929693;29;20118;-64
2023/12/25 05:50:57;;;;;;;156.57;99.00;;;13.30;99.90;;;;;;4929851;29;20180;-69
2023/12/25 05:53:24;;;;;;;166.65;110.10;;;13.30;99.90;;;;;;4928672;29;20088;-72
2023/12/25 05:55:52;;;;;;;150.82;98.55;;;13.20;99.90;;;;;;4930808;29;20083;-68
2023/12/25 05:58:19;;;;;;;156.57;100.72;;;13.30;99.90;;;;;;4930340;29;20566;-63
2023/12/25 06:00:45;;;;;;;150.73;97.28;;;13.30;99.90;;;;;;4930666;29;20167;-66
2023/12/25 06:03:12;;;;;;;158.95;100.15;;;13.20;99.90;;;;;;4931067;29;20087;-70
2023/12/25 06:05:38;;;;;;;162.30;102.20;;;13.30;99.90;;;;;;4944288;28;20079;-67
2023/12/25 06:08:04;;;;;;;;;;;13.30;99.90;;;;;;4940216;29;20138;-71
2023/12/25 06:10:31;;;;;;;192.20;129.60;;;13.20;99.90;;;;;;4929727;29;19958;-71
2023/12/25 06:12:57;;;;;;;191.85;132.05;;;13.20;99.90;;;;;;4935484;29;20142;-71
2023/12/25 06:15:24;;;;;;;181.10;128.07;;;13.10;99.90;;;;;;4929809;29;20083;-71
2023/12/25 06:17:50;;;;;;;179.00;120.22;;;13.00;99.90;;;;;;4943523;28;20087;-73
2023/12/25 06:20:17;;;;;;;173.00;111.07;;;13.00;99.90;;;;;;4929437;29;20106;-66
2023/12/25 06:22:43;;;;;;;165.50;109.97;;;13.00;99.90;;;;;;4929523;29;20091;-69
2023/12/25 06:25:10;;;;;;;158.40;108.85;;;13.00;99.90;;;;;;4930032;29;20102;-68
2023/12/25 06:27:36;;;;;;;;;;;13.00;99.90;;;;;;4930955;29;20115;-70
2023/12/25 06:30:04;;;;;;;163.13;115.05;;;13.00;99.90;;;;;;4928067;28;20002;-70
2023/12/25 06:32:31;;;;;;;183.27;119.13;;;12.90;99.90;;;;;;4931655;29;20124;-69
2023/12/25 06:34:57;;;;;;;177.75;116.15;;;12.90;99.90;;;;;;4933155;29;20093;-63
2023/12/25 06:37:24;;;;;;;192.82;129.50;;;12.90;99.90;;;;;;4935526;29;20083;-67
2023/12/25 06:39:50;;;;;;;194.57;130.15;;;12.90;99.90;;;;;;4934812;29;20079;-71
2023/12/25 06:42:17;;;;;;;196.15;125.22;;;12.90;99.90;;;;;;4944080;28;20083;-73
2023/12/25 06:44:43;;;;;;;182.85;120.15;;;12.80;99.90;;;;;;4933740;29;20108;-72
2023/12/25 06:47:10;;;;;;;204.88;136.52;;;12.90;99.90;;;;;;4936555;29;20109;-67
2023/12/25 06:49:36;;;;;;;198.95;136.65;;;12.90;99.90;;;;;;4945804;28;20079;-71
2023/12/25 06:52:03;;;;;;;203.45;136.05;;;13.00;99.90;;;;;;4939180;29;20109;-72
2023/12/25 06:54:29;;;;;;;194.75;134.90;;;12.90;99.90;;;;;;4934104;28;20486;-71
2023/12/25 06:56:56;;;;;;;189.73;133.20;;;12.80;99.90;;;;;;4946788;28;20119;-71
2023/12/25 06:59:22;;;;;;;196.60;131.75;;;12.80;99.90;;;;;;4933707;29;20105;-66
2023/12/25 07:01:48;;;;;;;204.18;143.65;;;12.70;99.90;;;;;;4932782;29;20585;-71
2023/12/25 07:04:15;;;;;;;234.23;156.93;;;12.70;99.90;;;;;;4932072;29;20091;-73
2023/12/25 07:06:41;;;;;;;230.02;150.65;;;12.60;99.90;;;;;;4929968;29;20113;-72
2023/12/25 07:09:14;;;;;;;241.77;158.95;;;12.60;99.90;;;;;;4932669;29;20120;-73
2023/12/25 07:11:42;;;;;;;248.50;166.43;;;12.70;99.90;;;;;;4931519;29;20173;-72
2023/12/25 07:14:11;;;;;;;213.90;143.63;;;12.60;99.90;;;;;;4933241;29;20087;-67
2023/12/25 07:16:37;;;;;;;210.27;138.10;;;12.60;99.90;;;;;;4947528;28;20087;-71
2023/12/25 07:19:04;;;;;;;222.25;147.27;;;12.60;99.90;;;;;;4931772;29;20166;-72
2023/12/25 07:21:30;;;;;;;220.10;141.90;;;12.60;99.90;;;;;;4934927;29;20075;-72
2023/12/25 07:23:58;;;;;;;210.23;141.90;;;12.60;99.90;;;;;;4930551;28;20091;-72
2023/12/25 07:26:24;;;;;;;209.23;151.65;;;12.60;99.90;;;;;;4932447;29;20083;-72
2023/12/25 07:28:51;;;;;;;223.57;150.02;;;12.60;99.90;;;;;;4933274;29;20121;-73
2023/12/25 07:31:20;;;;;;;217.25;151.13;;;12.50;99.90;;;;;;4932853;29;20554;-69
2023/12/25 07:33:47;;;;;;;296.77;226.40;;;12.50;99.90;;;;;;4932434;29;20147;-73
2023/12/25 07:36:14;;;;;;;312.77;247.02;;;12.50;99.90;;;;;;4933866;29;20080;-73
2023/12/25 07:38:41;;;;;;;328.80;239.68;;;12.50;99.90;;;;;;4930864;29;20087;-67
2023/12/25 07:41:11;;;;;;;282.10;214.00;;;12.40;99.90;;;;;;4932129;29;20083;-73
2023/12/25 07:43:38;;;;;;;263.90;197.70;;;12.30;99.90;;;;;;4931312;29;20080;-73
2023/12/25 07:46:09;;;;;;;258.70;171.23;;;12.40;99.90;;;;;;4936219;29;20077;-71
2023/12/25 07:48:36;;;;;;;249.52;172.50;;;12.30;99.90;;;;;;4932263;29;20134;-72
2023/12/25 07:51:03;;;;;;;232.07;162.02;;;12.40;99.90;;;;;;4931134;29;20080;-72
2023/12/25 07:53:29;;;;;;;234.82;169.60;;;12.30;99.90;;;;;;4930777;29;20087;-72
2023/12/25 07:55:56;;;;;;;237.88;174.18;;;12.30;99.90;;;;;;4949303;28;20108;-71
2023/12/25 07:58:22;;;;;;;224.82;153.93;;;12.30;99.90;;;;;;4940242;29;20115;-71
2023/12/25 08:00:49;;;;;;;211.25;149.43;;;12.30;99.90;;;;;;4938087;29;20083;-73
2023/12/25 08:03:16;;;;;;;240.30;181.93;;;12.30;99.90;;;;;;4932334;29;20083;-72
2023/12/25 08:05:43;;;;;;;252.27;187.68;;;12.40;99.90;;;;;;4939992;29;20118;-72
2023/12/25 08:08:09;;;;;;;253.75;185.27;;;12.30;99.90;;;;;;4942872;28;20553;-72
2023/12/25 08:10:36;;;;;;;258.30;197.55;;;12.30;99.90;;;;;;4939922;29;20088;-67
2023/12/25 08:13:03;;;;;;;271.02;211.40;;;12.30;99.90;;;;;;4940705;29;20531;-73
2023/12/25 08:15:29;;;;;;;275.55;217.50;;;12.20;99.90;;;;;;4935864;29;20173;-72
2023/12/25 08:17:56;;;;;;;254.10;196.38;;;12.20;99.90;;;;;;4932035;28;20519;-70
2023/12/25 08:20:23;;;;;;;254.43;199.98;;;12.30;99.90;;;;;;4932381;29;20123;-71
2023/12/25 08:22:49;;;;;;;267.65;210.85;;;12.40;99.90;;;;;;4930941;29;20166;-66
2023/12/25 08:25:16;;;;;;;259.08;214.73;;;12.30;99.90;;;;;;4931834;29;20096;-72
2023/12/25 08:27:43;;;;;;;270.25;221.35;;;12.30;99.90;;;;;;4932061;29;20122;-73
2023/12/25 08:30:10;;;;;;;275.08;220.38;;;12.20;99.90;;;;;;4946630;28;20099;-73
2023/12/25 08:32:37;;;;;;;245.82;193.48;;;12.20;99.90;;;;;;4931484;29;20163;-73
2023/12/25 08:35:03;;;;;;;246.70;196.27;;;12.10;99.90;;;;;;4930515;29;20080;-72
2023/12/25 08:37:30;;;;;;;242.43;193.55;;;12.20;99.90;;;;;;4931467;29;20091;-73
2023/12/25 08:39:57;;;;;;;247.98;200.18;;;12.20;99.90;;;;;;4931041;29;20138;-71
2023/12/25 08:42:23;;;;;;;241.80;201.05;;;12.20;99.90;;;;;;4930880;29;20114;-73
2023/12/25 08:44:50;;;;;;;238.43;195.30;;;12.20;99.90;;;;;;4928340;29;20752;-72
2023/12/25 08:47:16;;;;;;;228.93;174.75;;;12.10;99.90;;;;;;4929452;29;20135;-74
2023/12/25 08:49:43;;;;;;;218.52;173.15;;;12.20;99.90;;;;;;4930432;29;20091;-73
2023/12/25 08:52:09;;;;;;;208.57;167.75;;;12.10;99.90;;;;;;4945408;28;20786;-73
2023/12/25 08:54:36;;;;;;;199.98;158.57;;;12.10;99.90;;;;;;4931042;29;20586;-73
2023/12/25 08:57:04;;;;;;;177.70;142.73;;;12.00;99.90;;;;;;4931572;29;20116;-73
2023/12/25 08:59:30;;;;;;;170.30;136.10;;;12.00;99.90;;;;;;4931108;29;20080;-73
2023/12/25 09:01:57;;;;;;;187.38;146.85;;;12.00;99.90;;;;;;4930284;29;20075;-71
2023/12/25 09:04:23;;;;;;;171.43;142.50;;;12.00;99.90;;;;;;4930997;28;20095;-72
2023/12/25 09:06:50;;;;;;;156.68;129.18;;;12.00;99.90;;;;;;4930399;29;20084;-73
2023/12/25 09:09:16;;;;;;;144.77;118.10;;;12.00;99.90;;;;;;4930255;29;20123;-67
2023/12/25 09:11:43;;;;;;;133.85;110.90;;;12.00;99.90;;;;;;4930617;29;20505;-71
2023/12/25 09:14:10;;;;;;;117.10;97.45;;;12.10;99.90;;;;;;4932304;29;20550;-72
2023/12/25 09:16:36;;;;;;;109.32;89.40;;;12.00;99.90;;;;;;4928959;29;20096;-68
2023/12/25 09:19:04;;;;;;;103.28;85.43;;;12.10;99.90;;;;;;4930548;29;20115;-73
2023/12/25 09:21:36;;;;;;;98.45;84.68;;;12.10;99.90;;;;;;4933053;29;20083;-72
2023/12/25 09:24:02;;;;;;;95.22;80.50;;;12.10;99.90;;;;;;4930530;29;20442;-72
2023/12/25 09:26:29;;;;;;;77.95;66.43;;;12.10;99.90;;;;;;4930566;29;20149;-73
2023/12/25 09:28:56;;;;;;;80.32;63.60;;;12.20;99.90;;;;;;4931571;29;20111;-72
2023/12/25 09:31:22;;;;;;;66.70;55.25;;;12.20;99.90;;;;;;4929318;29;20110;-73
2023/12/25 09:33:49;;;;;;;69.32;51.95;;;12.20;99.90;;;;;;4931357;29;20083;-72
2023/12/25 09:36:15;;;;;;;65.78;51.33;;;12.20;99.90;;;;;;4927003;29;20170;-73
2023/12/25 09:38:41;;;;;;;61.88;51.78;;;12.20;99.90;;;;;;4930526;29;20458;-73
2023/12/25 09:41:11;;;;;;;68.80;54.55;;;12.20;99.90;;;;;;4929579;29;20131;-71
2023/12/25 09:43:41;;;;;;;68.20;53.85;;;12.10;99.90;;;;;;4930591;29;20572;-74
2023/12/25 09:46:11;;;;;;;66.85;53.67;;;12.10;99.90;;;;;;4930958;29;20088;-74
2023/12/25 09:48:38;;;;;;;66.45;55.03;;;12.10;99.90;;;;;;4929364;29;20111;-72
2023/12/25 09:51:10;;;;;;;65.10;55.40;;;12.10;99.90;;;;;;4933443;29;20164;-72
2023/12/25 09:53:36;;;;;;;70.43;58.08;;;12.00;99.90;;;;;;4929076;29;20088;-74
2023/12/25 09:56:06;;;;;;;74.13;61.63;;;11.90;99.90;;;;;;4928700;29;20147;-72
2023/12/25 09:58:33;;;;;;;79.07;66.13;;;11.80;99.90;;;;;;4929591;29;20175;-72
2023/12/25 10:01:01;;;;;;;80.25;63.03;;;11.70;99.90;;;;;;4930415;29;20081;-72
2023/12/25 10:03:29;;;;;;;74.10;60.67;;;11.70;99.90;;;;;;4929821;29;20079;-72
2023/12/25 10:05:55;;;;;;;72.05;60.10;;;11.80;99.90;;;;;;4929724;29;20544;-73
2023/12/25 10:08:22;;;;;;;74.88;63.42;;;11.80;99.90;;;;;;4932948;29;20143;-73
2023/12/25 10:10:53;;;;;;;79.53;67.47;;;11.80;99.90;;;;;;4933379;29;20080;-72
2023/12/25 10:13:19;;;;;;;84.82;72.80;;;11.80;99.90;;;;;;4928451;29;20085;-74
2023/12/25 10:15:46;;;;;;;94.40;76.15;;;11.70;99.90;;;;;;4933289;29;20543;-72
2023/12/25 10:18:12;;;;;;;91.95;76.53;;;11.50;99.90;;;;;;4933335;29;20568;-72
2023/12/25 10:20:38;;;;;;;81.80;71.10;;;11.40;99.90;;;;;;4933466;29;20167;-72
2023/12/25 10:23:13;;;;;;;78.10;61.60;;;11.50;99.90;;;;;;4932769;29;20116;-73
2023/12/25 10:25:44;;;;;;;79.93;64.45;;;11.50;99.90;;;;;;4934717;29;20091;-73
2023/12/25 10:28:11;;;;;;;81.63;64.22;;;11.60;99.90;;;;;;4933997;29;20108;-72
2023/12/25 10:30:38;;;;;;;67.15;54.28;;;11.50;99.90;;;;;;4934084;29;20075;-73
2023/12/25 10:33:13;;;;;;;57.30;46.15;;;11.50;99.90;;;;;;4933323;28;20088;-72
2023/12/25 10:35:40;;;;;;;53.58;41.50;;;11.50;99.90;;;;;;4932884;29;20092;-70
2023/12/25 10:38:07;;;;;;;48.53;38.85;;;11.50;99.90;;;;;;4932345;28;20206;-75
2023/12/25 10:40:36;;;;;;;47.58;37.85;;;11.60;99.90;;;;;;4939606;28;20080;-70
2023/12/25 10:43:04;;;;;;;41.35;36.72;;;11.60;99.90;;;;;;4938109;29;20084;-70
2023/12/25 10:45:30;;;;;;;37.50;33.40;;;11.70;99.90;;;;;;4942852;29;20177;-69
2023/12/25 10:48:05;;;;;;;44.63;36.03;;;11.60;99.90;;;;;;4940920;29;20119;-73
2023/12/25 10:50:36;;;;;;;45.50;36.00;;;11.60;99.90;;;;;;4935617;29;20080;-73
2023/12/25 10:53:08;;;;;;;41.65;35.17;;;11.50;99.90;;;;;;4937847;29;20150;-74
2023/12/25 10:55:37;;;;;;;41.72;33.63;;;11.50;99.90;;;;;;4932814;29;20121;-71
2023/12/25 10:58:08;;;;;;;37.13;30.95;;;11.60;99.90;;;;;;4937660;29;20127;-73
2023/12/25 11:00:39;;;;;;;43.22;36.40;;;11.50;99.90;;;;;;4935029;29;20130;-71
2023/12/25 11:03:06;;;;;;;34.70;30.90;;;11.50;99.90;;;;;;4937286;28;20084;-75
2023/12/25 11:05:33;;;;;;;33.25;28.15;;;11.40;99.90;;;;;;4931560;29;20088;-74
2023/12/25 11:08:00;;;;;;;36.15;28.50;;;11.40;99.90;;;;;;4932506;29;20484;-72
2023/12/25 11:10:30;;;;;;;33.63;27.45;;;11.40;99.90;;;;;;4933137;29;20080;-70
2023/12/25 11:12:58;;;;;;;36.05;30.00;;;11.60;99.90;;;;;;4931332;28;20108;-71
2023/12/25 11:15:24;;;;;;;37.75;29.10;;;11.40;99.90;;;;;;4933248;29;20531;-72
2023/12/25 11:17:51;;;;;;;38.38;31.85;;;11.50;99.90;;;;;;4931788;29;20087;-70
2023/12/25 11:20:18;;;;;;;32.55;27.95;;;11.40;99.90;;;;;;4933400;29;20178;-73
2023/12/25 11:22:45;;;;;;;31.33;26.48;;;11.40;99.90;;;;;;4931970;29;20080;-73
2023/12/25 11:25:20;;;;;;;34.05;28.77;;;11.50;99.90;;;;;;4932901;29;20084;-73
2023/12/25 11:27:56;;;;;;;38.78;32.65;;;11.50;99.90;;;;;;4932285;29;20108;-72
2023/12/25 11:30:25;;;;;;;38.65;30.85;;;11.50;99.90;;;;;;4931102;29;20100;-72
2023/12/25 11:32:54;;;;;;;37.28;30.52;;;11.40;99.90;;;;;;4931227;29;20084;-72
2023/12/25 11:35:33;;;;;;;41.25;31.13;;;11.40;99.90;;;;;;4932059;29;20178;-74
2023/12/25 11:38:25;;;;;;;34.78;30.00;;;11.40;99.90;;;;;;4947191;28;20095;-74
2023/12/25 11:40:52;;;;;;;35.03;29.90;;;11.30;99.90;;;;;;4932533;29;20543;-75
2023/12/25 11:43:19;;;;;;;32.83;25.30;;;11.30;99.90;;;;;;4932208;29;20104;-73
2023/12/25 11:45:54;;;;;;;35.30;28.83;;;11.30;99.90;;;;;;4947773;28;20116;-74
2023/12/25 11:48:21;;;;;;;32.03;26.05;;;11.40;99.90;;;;;;4931978;29;20108;-67
2023/12/25 11:51:00;;;;;;;33.97;27.63;;;11.40;99.90;;;;;;4931786;29;20501;-74
2023/12/25 11:53:39;;;;;;;39.50;29.38;;;11.30;99.90;;;;;;4930796;29;20454;-70
2023/12/25 11:56:08;;;;;;;30.95;27.58;;;11.30;99.90;;;;;;4936486;29;20119;-75
2023/12/25 11:58:36;;;;;;;33.53;27.25;;;11.30;99.90;;;;;;4931591;29;20215;-75
2023/12/25 12:01:04;;;;;;;35.65;30.80;;;11.30;99.90;;;;;;4931727;29;20482;-75
2023/12/25 12:03:31;;;;;;;33.65;26.90;;;11.30;99.90;;;;;;4931290;29;20093;-76
2023/12/25 12:05:57;;;;;;;34.75;30.85;;;11.20;99.90;;;;;;4946815;28;20171;-75
2023/12/25 12:08:27;;;;;;;36.50;32.08;;;11.30;99.90;;;;;;4931519;29;20119;-72
2023/12/25 12:10:54;;;;;;;45.72;36.55;;;11.20;99.90;;;;;;4931467;29;20080;-75
2023/12/25 12:13:21;;;;;;;44.17;36.35;;;11.10;99.90;;;;;;4932111;29;20598;-71
2023/12/25 12:15:47;;;;;;;45.83;37.72;;;11.10;99.90;;;;;;4931074;29;20481;-73
2023/12/25 12:18:14;;;;;;;61.28;49.35;;;11.00;99.90;;;;;;4931237;29;20593;-75
2023/12/25 12:20:40;;;;;;;62.72;52.35;;;11.00;99.90;;;;;;4930352;29;20513;-70
2023/12/25 12:23:13;;;;;;;67.90;56.85;;;11.00;99.90;;;;;;4930202;29;20094;-75